Time;durP1;ratioP1;P1;durP2;ratioP2;P2;SDS_P1;SDS_P2;PMS_P1;PMS_P2;Temp;Humidity;BMP_temperature;BMP_pressure;BME280_temperature;BME280_humidity;BME280_pressure;Samples;Min_cycle;Max_cycle;Signal;HPM_P1;HPM_P2
2022/08/05 00:01:09;;;;;;;6.25;3.05;;;21.80;99.90;;;;;;5017947;28;20187;-86
2022/08/05 00:03:35;;;;;;;8.25;2.70;;;21.60;99.90;;;;;;5017742;28;20253;-86
2022/08/05 00:06:00;;;;;;;7.20;2.85;;;21.70;99.90;;;;;;5017743;28;20192;-86
2022/08/05 00:08:26;;;;;;;8.57;2.60;;;21.90;99.90;;;;;;5017757;28;20213;-86
2022/08/05 00:10:52;;;;;;;4.18;2.17;;;21.90;99.90;;;;;;5017754;28;20176;-86
2022/08/05 00:13:17;;;;;;;7.55;3.38;;;22.00;99.90;;;;;;5018060;28;20172;-87
2022/08/05 00:15:43;;;;;;;2.83;2.35;;;21.90;99.90;;;;;;5035313;28;20164;-86
2022/08/05 00:18:08;;;;;;;8.75;2.50;;;21.80;99.90;;;;;;5037117;28;20214;-87
2022/08/05 00:20:34;;;;;;;7.03;2.15;;;21.90;99.90;;;;;;5040937;28;20179;-86
2022/08/05 00:22:59;;;;;;;3.58;2.45;;;22.00;99.90;;;;;;5038354;28;20270;-86
2022/08/05 00:25:25;;;;;;;5.25;2.40;;;21.70;99.90;;;;;;5017779;28;20168;-87
2022/08/05 00:27:51;;;;;;;5.55;2.65;;;21.90;99.90;;;;;;5017178;28;20282;-87
2022/08/05 00:30:16;;;;;;;6.10;2.28;;;22.20;99.90;;;;;;5034160;28;20188;-86
2022/08/05 00:32:42;;;;;;;11.82;2.75;;;22.00;99.90;;;;;;5017701;28;20509;-88
2022/08/05 00:35:08;;;;;;;5.80;2.45;;;22.10;99.90;;;;;;5020569;28;20175;-86
2022/08/05 00:37:34;;;;;;;5.00;2.35;;;22.20;99.90;;;;;;5017250;28;20199;-86
2022/08/05 00:39:59;;;;;;;9.23;2.38;;;22.10;99.90;;;;;;5017478;28;20298;-86
2022/08/05 00:42:29;;;;;;;8.57;2.53;;;22.20;99.90;;;;;;5017372;28;20203;-87
2022/08/05 00:44:55;;;;;;;7.30;2.58;;;22.10;99.90;;;;;;5017818;28;20176;-86
2022/08/05 00:47:20;;;;;;;3.92;2.50;;;21.90;99.90;;;;;;5018485;28;20210;-86
2022/08/05 00:49:46;;;;;;;2.97;2.63;;;22.00;99.90;;;;;;5019544;28;20203;-86
2022/08/05 00:52:11;;;;;;;3.03;2.42;;;21.80;99.90;;;;;;5023070;28;20178;-87
2022/08/05 00:54:37;;;;;;;4.25;2.70;;;21.80;99.90;;;;;;5018985;28;20167;-86
2022/08/05 00:57:03;;;;;;;3.78;2.10;;;21.70;99.90;;;;;;5021203;28;20176;-85
2022/08/05 00:59:29;;;;;;;5.05;2.35;;;21.90;99.90;;;;;;5020721;28;20196;-87
2022/08/05 01:01:54;;;;;;;5.95;1.92;;;21.90;99.90;;;;;;5019700;28;20191;-87
2022/08/05 01:04:20;;;;;;;8.32;2.53;;;22.10;99.90;;;;;;5019089;28;20179;-86
2022/08/05 01:06:49;;;;;;;4.20;2.65;;;21.90;99.90;;;;;;5021873;28;20144;-84
2022/08/05 01:09:14;;;;;;;17.63;3.85;;;21.60;99.90;;;;;;5023508;28;20230;-86
2022/08/05 01:11:47;;;;;;;4.22;2.72;;;21.00;99.90;;;;;;5042968;28;20239;-86
2022/08/05 01:14:39;;;;;;;3.15;2.03;;;20.90;99.90;;;;;;5022458;28;20164;-85
2022/08/05 01:17:09;;;;;;;6.03;2.53;;;20.80;99.90;;;;;;5019540;28;20184;-86
2022/08/05 01:20:17;;;;;;;7.75;3.55;;;20.70;99.90;;;;;;5023685;28;20195;-86
2022/08/05 01:23:40;;;;;;;4.85;2.40;;;20.70;99.90;;;;;;5020753;28;20200;-86
2022/08/05 01:26:18;;;;;;;6.15;2.88;;;20.70;99.90;;;;;;5024705;28;20172;-86
2022/08/05 01:29:27;;;;;;;4.78;2.92;;;20.70;99.90;;;;;;5024550;28;20254;-86
2022/08/05 01:31:57;;;;;;;7.32;2.50;;;20.70;99.90;;;;;;5041828;28;20644;-86
2022/08/05 01:35:09;;;;;;;5.03;2.92;;;20.60;99.90;;;;;;5026780;28;20184;-85
2022/08/05 01:37:43;;;;;;;8.57;3.17;;;20.50;99.90;;;;;;4908496;29;20186;-86
2022/08/05 01:40:11;;;;;;;7.50;3.78;;;20.60;99.90;;;;;;5017467;28;20242;-86
2022/08/05 01:42:41;;;;;;;4.93;2.97;;;20.80;99.90;;;;;;5026645;28;20275;-84
2022/08/05 01:45:08;;;;;;;6.80;2.75;;;21.10;99.90;;;;;;5024409;28;20202;-86
2022/08/05 01:47:35;;;;;;;9.77;2.92;;;21.20;99.90;;;;;;5004940;28;20203;-87
2022/08/05 01:50:08;;;;;;;7.38;3.13;;;21.30;99.90;;;;;;5020774;28;20219;-86
2022/08/05 01:52:35;;;;;;;5.10;2.88;;;21.30;99.90;;;;;;5018981;28;20163;-86
2022/08/05 01:55:07;;;;;;;5.15;2.72;;;21.20;99.90;;;;;;5018729;28;20222;-84
2022/08/05 01:57:36;;;;;;;3.33;2.35;;;21.10;99.90;;;;;;5020157;28;20168;-85
2022/08/05 02:00:05;;;;;;;6.47;3.00;;;21.30;99.90;;;;;;5021556;28;20199;-86
2022/08/05 02:02:32;;;;;;;14.48;2.53;;;21.40;99.90;;;;;;5021299;28;20167;-85
2022/08/05 02:05:02;;;;;;;5.13;3.33;;;21.40;99.90;;;;;;5041197;28;20620;-85
2022/08/05 02:07:28;;;;;;;7.47;2.78;;;21.40;99.90;;;;;;5022350;28;20206;-86
2022/08/05 02:09:54;;;;;;;10.98;2.95;;;21.40;99.90;;;;;;5023825;28;20198;-86
2022/08/05 02:12:37;;;;;;;7.18;3.17;;;21.50;99.90;;;;;;5021506;28;20195;-86
2022/08/05 02:15:08;;;;;;;9.00;2.80;;;21.50;99.90;;;;;;5019929;28;20230;-86
2022/08/05 02:18:11;;;;;;;2.38;2.13;;;21.50;99.90;;;;;;5019648;28;20576;-86
2022/08/05 02:20:51;;;;;;;5.03;2.70;;;21.40;99.90;;;;;;4921771;29;20282;-86
2022/08/05 02:23:21;;;;;;;2.72;2.28;;;21.20;99.90;;;;;;5027686;28;20195;-87
2022/08/05 02:25:49;;;;;;;9.98;2.60;;;21.10;99.90;;;;;;5037808;28;20195;-86
2022/08/05 02:28:18;;;;;;;7.38;3.63;;;21.20;99.90;;;;;;5019705;28;20222;-86
2022/08/05 02:30:47;;;;;;;4.05;2.67;;;21.50;99.90;;;;;;5019564;28;20192;-86
2022/08/05 02:33:17;;;;;;;9.23;3.03;;;21.30;99.90;;;;;;5019483;28;20188;-87
2022/08/05 02:35:44;;;;;;;9.85;2.78;;;21.20;99.90;;;;;;5019672;28;20166;-87
2022/08/05 02:38:11;;;;;;;7.47;3.10;;;21.30;99.90;;;;;;5019380;28;20627;-86
2022/08/05 02:40:41;;;;;;;4.32;2.72;;;21.30;99.90;;;;;;5030665;28;20188;-86
2022/08/05 02:43:08;;;;;;;8.40;2.47;;;21.30;99.90;;;;;;5042106;28;20174;-85
2022/08/05 02:45:35;;;;;;;8.02;3.10;;;21.00;99.90;;;;;;5044114;28;20175;-86
2022/08/05 02:48:03;;;;;;;8.75;2.95;;;21.10;99.90;;;;;;5041890;28;20306;-87
2022/08/05 02:50:29;;;;;;;10.25;2.75;;;21.10;99.90;;;;;;5019303;28;20183;-86
2022/08/05 02:52:55;;;;;;;5.80;3.05;;;20.80;99.90;;;;;;5019389;28;20198;-87
2022/08/05 02:55:21;;;;;;;9.23;3.33;;;20.60;99.90;;;;;;5019185;28;20644;-87
2022/08/05 02:57:48;;;;;;;15.63;3.15;;;20.40;99.90;;;;;;5019182;28;20567;-86
2022/08/05 03:00:14;;;;;;;11.55;3.55;;;20.30;99.90;;;;;;5019305;28;20184;-87
2022/08/05 03:02:42;;;;;;;4.60;2.65;;;20.20;99.90;;;;;;5018773;28;20868;-86
2022/08/05 03:05:10;;;;;;;11.30;3.00;;;20.10;99.90;;;;;;5018836;28;20183;-86
2022/08/05 03:07:37;;;;;;;4.88;3.20;;;20.10;99.90;;;;;;5018657;28;20199;-86
2022/08/05 03:10:03;;;;;;;6.63;3.25;;;20.20;99.90;;;;;;5018637;28;20241;-86
2022/08/05 03:12:37;;;;;;;12.10;4.00;;;20.40;99.90;;;;;;5018867;28;20168;-86
2022/08/05 03:15:05;;;;;;;13.73;3.42;;;20.50;99.90;;;;;;5036006;28;20172;-86
2022/08/05 03:17:30;;;;;;;3.83;2.92;;;20.60;99.90;;;;;;5018574;28;20168;-86
2022/08/05 03:19:56;;;;;;;8.32;3.80;;;20.60;99.90;;;;;;5018910;28;20242;-86
2022/08/05 03:22:22;;;;;;;9.73;2.95;;;20.50;99.90;;;;;;5018638;28;20183;-86
2022/08/05 03:24:49;;;;;;;11.63;3.67;;;20.60;99.90;;;;;;5018666;28;20176;-86
2022/08/05 03:27:15;;;;;;;15.73;3.90;;;20.40;99.90;;;;;;5036423;28;20253;-85
2022/08/05 03:29:41;;;;;;;6.20;3.17;;;20.30;99.90;;;;;;5026866;28;20195;-85
2022/08/05 03:32:08;;;;;;;8.00;3.25;;;20.30;99.90;;;;;;5020907;28;20179;-86
2022/08/05 03:34:34;;;;;;;7.40;3.28;;;20.30;99.90;;;;;;5018438;28;20176;-86
2022/08/05 03:37:01;;;;;;;17.13;3.65;;;20.40;99.90;;;;;;5035854;28;20168;-86
2022/08/05 03:39:27;;;;;;;9.10;3.22;;;20.40;99.90;;;;;;5017962;28;20200;-85
2022/08/05 03:41:54;;;;;;;11.77;4.07;;;20.50;99.90;;;;;;5018223;28;20225;-86
2022/08/05 03:44:19;;;;;;;4.93;2.80;;;20.40;99.90;;;;;;5018055;28;20175;-87
2022/08/05 03:46:45;;;;;;;4.88;2.60;;;20.30;99.90;;;;;;5018346;28;20531;-87
2022/08/05 03:49:10;;;;;;;3.83;3.33;;;20.20;99.90;;;;;;5018281;28;20230;-87
2022/08/05 03:51:50;;;;;;;11.93;3.90;;;20.30;99.90;;;;;;5018019;28;20284;-87
2022/08/05 03:54:36;;;;;;;7.22;3.85;;;20.30;99.90;;;;;;5018121;28;20205;-87
2022/08/05 03:57:06;;;;;;;7.13;3.42;;;20.30;99.90;;;;;;5019088;28;20167;-87
2022/08/05 04:00:08;;;;;;;9.82;3.50;;;20.30;99.90;;;;;;5019111;28;20198;-87
2022/08/05 04:02:36;;;;;;;5.55;3.55;;;20.30;99.90;;;;;;5002869;28;20643;-87
2022/08/05 04:05:03;;;;;;;8.45;3.42;;;20.30;99.90;;;;;;5018758;28;20199;-87
2022/08/05 04:07:29;;;;;;;7.15;3.38;;;20.30;99.90;;;;;;5018081;28;20301;-87
2022/08/05 04:09:55;;;;;;;11.15;3.70;;;20.40;99.90;;;;;;5018538;28;20191;-87
2022/08/05 04:12:21;;;;;;;17.42;5.47;;;20.30;99.90;;;;;;5019200;28;20168;-86
2022/08/05 04:14:47;;;;;;;8.48;3.33;;;20.30;99.90;;;;;;5018511;28;20255;-87
2022/08/05 04:17:13;;;;;;;11.45;3.45;;;20.40;99.90;;;;;;5018679;28;20703;-87
2022/08/05 04:19:43;;;;;;;13.90;3.85;;;20.20;99.90;;;;;;5018617;28;20234;-87
2022/08/05 04:22:09;;;;;;;19.20;4.10;;;20.30;99.90;;;;;;5018450;28;20167;-87
2022/08/05 04:24:36;;;;;;;14.23;3.67;;;20.50;99.90;;;;;;5018374;28;20211;-87
2022/08/05 04:27:02;;;;;;;7.50;3.67;;;20.60;99.90;;;;;;5017114;28;20168;-87
2022/08/05 04:29:28;;;;;;;9.77;4.10;;;20.60;99.90;;;;;;5018136;28;20570;-87
2022/08/05 04:31:53;;;;;;;6.50;4.20;;;20.60;99.90;;;;;;5018465;28;20617;-87
2022/08/05 04:34:19;;;;;;;8.80;4.22;;;20.50;99.90;;;;;;5018475;28;20167;-85
2022/08/05 04:36:44;;;;;;;13.98;4.38;;;20.50;99.90;;;;;;5018416;28;20184;-85
2022/08/05 04:39:10;;;;;;;9.23;4.25;;;20.20;99.90;;;;;;5018941;28;20222;-86
2022/08/05 04:41:37;;;;;;;16.42;4.72;;;20.50;99.90;;;;;;5018107;28;20171;-86
2022/08/05 04:44:02;;;;;;;10.80;4.72;;;20.30;99.90;;;;;;5035945;28;20253;-86
2022/08/05 04:46:28;;;;;;;12.70;4.72;;;20.20;99.90;;;;;;5018805;28;20628;-86
2022/08/05 04:48:54;;;;;;;20.02;4.70;;;20.30;99.90;;;;;;5018526;28;20207;-86
2022/08/05 04:51:19;;;;;;;12.63;4.85;;;20.30;99.90;;;;;;5035762;28;20184;-86
2022/08/05 04:53:45;;;;;;;15.77;4.80;;;20.10;99.90;;;;;;5022881;28;20235;-87
2022/08/05 04:56:10;;;;;;;20.50;4.65;;;19.90;99.90;;;;;;5020610;28;20172;-86
2022/08/05 04:58:36;;;;;;;11.68;4.28;;;19.90;99.90;;;;;;5020797;28;20172;-86
2022/08/05 05:01:02;;;;;;;9.80;4.07;;;20.10;99.90;;;;;;5019766;28;20189;-86
2022/08/05 05:03:27;;;;;;;8.55;4.00;;;20.10;99.90;;;;;;5020174;28;20172;-87
2022/08/05 05:05:53;;;;;;;10.80;4.53;;;19.90;99.90;;;;;;5027819;28;20168;-85
2022/08/05 05:08:19;;;;;;;11.77;4.22;;;20.00;99.90;;;;;;5056179;28;20202;-86
2022/08/05 05:10:47;;;;;;;6.32;4.53;;;20.00;99.90;;;;;;5041257;28;20184;-86
2022/08/05 05:13:14;;;;;;;12.65;4.03;;;19.90;99.90;;;;;;5035087;28;20500;-87
2022/08/05 05:15:42;;;;;;;5.60;4.13;;;19.90;99.90;;;;;;5018494;28;20160;-87
2022/08/05 05:18:16;;;;;;;11.75;5.53;;;20.00;99.90;;;;;;5031468;28;20195;-86
2022/08/05 05:20:42;;;;;;;8.18;4.65;;;20.20;99.90;;;;;;5025365;28;20183;-87
2022/08/05 05:23:10;;;;;;;16.10;4.63;;;20.30;99.90;;;;;;5025042;28;20176;-87
2022/08/05 05:26:23;;;;;;;10.73;4.47;;;20.40;99.90;;;;;;5039688;28;20179;-87
2022/08/05 05:28:50;;;;;;;10.95;4.82;;;20.50;99.90;;;;;;5035248;28;20207;-87
2022/08/05 05:31:34;;;;;;;13.00;4.53;;;20.60;99.90;;;;;;5032967;28;20179;-87
2022/08/05 05:34:07;;;;;;;10.73;3.75;;;20.60;99.90;;;;;;5033282;28;20160;-87
2022/08/05 05:36:33;;;;;;;10.52;3.58;;;20.70;99.90;;;;;;5024653;28;20159;-87
2022/08/05 05:39:01;;;;;;;11.57;4.90;;;20.90;99.90;;;;;;5030960;28;20199;-82
2022/08/05 05:41:27;;;;;;;11.02;4.38;;;21.10;99.90;;;;;;5039285;28;20164;-84
2022/08/05 05:44:18;;;;;;;9.95;4.00;;;20.90;99.90;;;;;;5025795;28;20178;-88
2022/08/05 05:47:07;;;;;;;16.77;4.45;;;21.00;99.90;;;;;;5030863;28;20225;-88
2022/08/05 05:49:45;;;;;;;8.77;4.57;;;21.40;99.90;;;;;;5030212;28;20223;-88
2022/08/05 05:52:13;;;;;;;12.45;4.43;;;21.40;99.90;;;;;;5035518;28;20185;-90
2022/08/05 05:54:39;;;;;;;16.02;5.00;;;21.40;99.90;;;;;;5023731;28;20857;-89
2022/08/05 05:57:18;;;;;;;8.43;4.88;;;21.20;99.90;;;;;;5034119;28;20243;-90
2022/08/05 05:59:46;;;;;;;13.80;4.30;;;21.10;99.90;;;;;;5051339;28;20249;-90
2022/08/05 06:02:16;;;;;;;10.27;4.07;;;20.70;99.90;;;;;;5049399;28;20163;-91
2022/08/05 06:04:43;;;;;;;10.25;3.97;;;20.80;99.90;;;;;;5029012;28;20144;-90
2022/08/05 06:07:08;;;;;;;12.20;4.60;;;21.00;99.90;;;;;;5025218;28;20196;-89
2022/08/05 06:09:34;;;;;;;9.10;4.35;;;21.20;99.90;;;;;;5018027;28;20234;-90
2022/08/05 06:11:59;;;;;;;19.42;5.38;;;21.50;99.90;;;;;;5016944;28;20172;-91
2022/08/05 06:14:25;;;;;;;20.60;4.30;;;21.80;99.90;;;;;;5016172;28;20171;-89
2022/08/05 06:16:51;;;;;;;11.40;4.10;;;21.90;99.90;;;;;;5016214;28;20170;-89
2022/08/05 06:19:17;;;;;;;9.00;3.72;;;22.10;99.90;;;;;;5016084;28;20199;-92
2022/08/05 06:21:42;;;;;;;6.47;3.72;;;22.10;99.90;;;;;;5016246;28;20263;-90
2022/08/05 06:24:08;;;;;;;5.53;3.63;;;22.00;99.90;;;;;;5016405;28;20647;-92
2022/08/05 06:26:34;;;;;;;11.48;3.50;;;22.10;99.90;;;;;;5016863;28;20218;-89
2022/08/05 06:28:59;;;;;;;13.80;4.07;;;22.40;99.90;;;;;;5016325;28;20214;-89
2022/08/05 06:31:25;;;;;;;9.95;3.45;;;22.60;99.90;;;;;;5015908;28;20163;-92
2022/08/05 06:33:51;;;;;;;5.45;3.53;;;22.60;99.90;;;;;;5017024;28;20590;-89
2022/08/05 06:36:16;;;;;;;6.63;3.83;;;22.30;99.90;;;;;;5017440;28;20164;-89
2022/08/05 06:38:45;;;;;;;7.00;3.17;;;22.30;99.90;;;;;;5017127;28;20164;-88
2022/08/05 06:41:11;;;;;;;9.82;3.20;;;22.40;99.90;;;;;;5016965;28;20164;-91
2022/08/05 06:43:36;;;;;;;12.45;3.40;;;22.50;99.90;;;;;;5034258;28;20196;-94
2022/08/05 06:46:02;;;;;;;5.20;3.45;;;22.80;99.90;;;;;;5016910;28;20168;-90
2022/08/05 06:48:28;;;;;;;7.03;3.72;;;22.50;99.90;;;;;;5016454;28;20199;-90
2022/08/05 06:50:53;;;;;;;17.95;3.83;;;22.20;99.90;;;;;;5017884;28;20191;-92
2022/08/05 06:53:19;;;;;;;5.53;2.85;;;22.20;99.90;;;;;;5020229;28;20176;-90
2022/08/05 06:55:45;;;;;;;10.48;2.83;;;22.30;99.90;;;;;;5019560;28;20198;-91
2022/08/05 06:58:10;;;;;;;4.72;3.38;;;22.40;99.90;;;;;;5020316;28;20168;-88
2022/08/05 07:00:37;;;;;;;9.82;3.10;;;22.20;99.90;;;;;;5019861;28;20253;-89
2022/08/05 07:03:02;;;;;;;16.88;3.92;;;22.40;99.90;;;;;;5019843;28;20176;-91
2022/08/05 07:05:28;;;;;;;6.32;3.35;;;22.30;99.90;;;;;;5019748;28;20168;-92
2022/08/05 07:07:54;;;;;;;6.55;3.55;;;22.20;99.90;;;;;;5036820;28;20195;-92
2022/08/05 07:10:19;;;;;;;7.20;2.85;;;22.40;99.90;;;;;;5019903;28;20274;-89
2022/08/05 07:18:13;;;;;;;5.07;3.20;;;22.40;99.90;;;;;;5038416;28;20210;-82
2022/08/05 07:20:43;;;;;;;6.15;3.70;;;22.80;99.90;;;;;;5050414;28;20195;-81
2022/08/05 07:23:09;;;;;;;8.48;3.38;;;23.30;99.90;;;;;;5045693;28;20168;-80
2022/08/05 07:25:35;;;;;;;6.30;2.75;;;23.70;99.90;;;;;;5027831;28;20168;-82
2022/08/05 07:28:00;;;;;;;13.68;4.00;;;23.60;99.90;;;;;;5060211;28;20258;-82
2022/08/05 07:30:32;;;;;;;8.73;2.47;;;23.30;99.90;;;;;;5044698;28;20192;-83
2022/08/05 07:33:01;;;;;;;8.13;3.30;;;22.80;99.90;;;;;;5046070;28;20179;-80
2022/08/05 07:35:27;;;;;;;6.10;2.50;;;22.60;99.90;;;;;;5029754;28;20255;-81
2022/08/05 07:37:52;;;;;;;16.27;3.42;;;22.60;99.90;;;;;;5051883;28;20175;-79
2022/08/05 07:40:24;;;;;;;4.05;3.08;;;22.70;99.90;;;;;;5034907;28;20200;-81
2022/08/05 07:42:49;;;;;;;8.95;2.85;;;22.70;99.90;;;;;;5020757;28;20165;-83
2022/08/05 07:45:19;;;;;;;3.20;2.47;;;22.40;99.90;;;;;;5055688;28;20191;-82
2022/08/05 07:47:45;;;;;;;6.45;2.60;;;22.40;99.90;;;;;;5063032;28;20208;-83
2022/08/05 07:50:11;;;;;;;4.55;2.45;;;22.50;99.90;;;;;;5038178;28;20195;-83
2022/08/05 07:52:42;;;;;;;3.35;2.15;;;22.50;99.90;;;;;;5040919;28;20193;-83
2022/08/05 07:55:08;;;;;;;14.20;3.60;;;22.50;99.90;;;;;;5024233;28;20176;-83
2022/08/05 07:57:35;;;;;;;9.45;3.05;;;22.30;99.90;;;;;;5053013;28;20271;-83
2022/08/05 08:00:02;;;;;;;15.05;2.33;;;22.50;99.90;;;;;;5035472;28;20225;-80
2022/08/05 08:02:28;;;;;;;9.30;2.25;;;22.50;99.90;;;;;;5017022;28;20564;-80
2022/08/05 08:04:55;;;;;;;3.10;1.95;;;22.70;99.90;;;;;;5035057;28;20568;-81
2022/08/05 08:07:21;;;;;;;7.53;2.03;;;23.00;99.90;;;;;;5036370;28;20168;-81
2022/08/05 08:09:47;;;;;;;3.65;1.88;;;22.90;99.90;;;;;;5034944;28;20216;-79
2022/08/05 08:12:14;;;;;;;8.73;2.00;;;22.90;99.90;;;;;;5036065;28;20171;-82
2022/08/05 08:14:40;;;;;;;4.72;2.45;;;23.10;99.90;;;;;;5020633;28;20189;-82
2022/08/05 08:17:09;;;;;;;5.32;2.08;;;22.80;99.90;;;;;;5036547;28;20246;-83
2022/08/05 08:19:39;;;;;;;6.43;2.15;;;22.80;99.90;;;;;;5037113;28;20620;-82
2022/08/05 08:22:06;;;;;;;4.85;2.13;;;22.90;99.90;;;;;;5036527;28;20168;-85
2022/08/05 08:24:38;;;;;;;10.65;1.85;;;23.00;99.90;;;;;;5019010;28;20164;-85
2022/08/05 08:27:04;;;;;;;7.03;1.77;;;23.20;99.90;;;;;;5018512;28;20176;-81
2022/08/05 08:29:30;;;;;;;4.57;1.70;;;23.50;99.90;;;;;;5038293;28;20682;-83
2022/08/05 08:31:56;;;;;;;4.72;1.80;;;24.10;99.90;;;;;;5017976;28;20168;-85
2022/08/05 08:34:24;;;;;;;3.42;1.40;;;24.30;99.90;;;;;;5034724;28;20501;-86
2022/08/05 08:36:50;;;;;;;6.25;1.55;;;24.80;99.90;;;;;;5017393;28;20164;-87
2022/08/05 08:39:17;;;;;;;3.40;1.27;;;25.00;99.90;;;;;;5020678;28;20199;-86
2022/08/05 08:41:55;;;;;;;5.13;1.45;;;24.60;99.90;;;;;;5028940;28;20297;-86
2022/08/05 08:44:23;;;;;;;14.15;2.03;;;23.90;99.90;;;;;;5027913;28;20167;-85
2022/08/05 08:46:49;;;;;;;5.55;2.10;;;23.40;99.90;;;;;;5022926;28;20570;-83
2022/08/05 08:49:17;;;;;;;2.28;1.70;;;23.00;99.90;;;;;;5022606;28;20207;-83
2022/08/05 08:51:47;;;;;;;10.38;2.05;;;22.60;99.90;;;;;;5037175;28;20336;-83
2022/08/05 08:54:13;;;;;;;3.47;1.38;;;22.40;99.90;;;;;;5020887;28;20191;-82
2022/08/05 08:56:40;;;;;;;11.13;1.70;;;22.60;99.90;;;;;;5018553;28;20647;-83
2022/08/05 08:59:06;;;;;;;5.97;1.60;;;23.00;99.90;;;;;;5018550;28;20259;-83
2022/08/05 09:01:32;;;;;;;2.95;1.50;;;23.40;99.90;;;;;;5037878;28;20168;-83
2022/08/05 09:03:59;;;;;;;6.95;1.80;;;23.60;99.90;;;;;;5018149;28;20175;-82
2022/08/05 09:06:27;;;;;;;6.22;2.75;;;23.80;99.90;;;;;;5018542;28;20187;-83
2022/08/05 09:08:52;;;;;;;4.05;2.97;;;24.10;99.90;;;;;;5036629;28;20280;-84
2022/08/05 09:11:18;;;;;;;4.90;2.28;;;24.00;99.90;;;;;;5036919;28;20605;-84
2022/08/05 09:13:44;;;;;;;5.43;3.00;;;24.00;99.90;;;;;;5035543;28;20168;-84
2022/08/05 09:16:11;;;;;;;7.30;3.28;;;23.90;99.90;;;;;;5016850;28;20174;-83
2022/08/05 09:18:37;;;;;;;4.60;3.20;;;23.50;99.90;;;;;;5034612;28;20187;-83
2022/08/05 09:21:03;;;;;;;5.85;2.63;;;23.20;99.90;;;;;;5015877;28;20183;-84
2022/08/05 09:23:29;;;;;;;6.88;3.25;;;22.80;99.90;;;;;;5034207;28;20262;-84
2022/08/05 09:26:10;;;;;;;4.70;2.80;;;23.00;99.90;;;;;;5033471;28;20628;-84
2022/08/05 09:28:38;;;;;;;2.80;2.60;;;23.60;99.90;;;;;;5033340;28;20294;-83
2022/08/05 09:31:09;;;;;;;3.50;2.53;;;24.10;99.90;;;;;;5016422;28;20248;-84
2022/08/05 09:33:57;;;;;;;2.30;2.10;;;24.00;99.90;;;;;;5041658;28;20186;-83
2022/08/05 09:36:23;;;;;;;3.67;1.77;;;24.30;99.90;;;;;;5044616;28;20179;-83
2022/08/05 09:39:00;;;;;;;4.90;1.83;;;24.40;99.90;;;;;;5025933;28;20172;-83
2022/08/05 09:41:26;;;;;;;2.00;1.60;;;24.20;99.90;;;;;;5043278;28;20167;-83
2022/08/05 09:43:52;;;;;;;3.15;1.60;;;24.30;99.90;;;;;;5041561;28;20214;-83
2022/08/05 09:46:32;;;;;;;6.10;1.55;;;24.30;99.90;;;;;;5043073;28;20168;-83
2022/08/05 09:49:03;;;;;;;1.23;0.90;;;23.90;99.90;;;;;;5037556;28;20234;-83
2022/08/05 09:51:33;;;;;;;3.75;1.30;;;24.00;99.90;;;;;;5055272;28;20167;-83
2022/08/05 09:54:00;;;;;;;6.85;0.98;;;24.30;99.90;;;;;;5039008;28;20170;-83
2022/08/05 09:56:34;;;;;;;6.57;0.90;;;24.10;99.90;;;;;;5036582;28;20686;-84
2022/08/05 09:59:02;;;;;;;6.20;0.95;;;24.00;99.90;;;;;;5034607;28;20176;-84
2022/08/05 10:01:32;;;;;;;1.60;0.75;;;23.90;99.90;;;;;;5028315;28;20176;-83
2022/08/05 10:04:11;;;;;;;5.72;1.25;;;24.10;99.90;;;;;;5018505;28;20182;-83
2022/08/05 10:06:41;;;;;;;0.85;0.68;;;24.30;99.90;;;;;;5041919;28;20163;-82
2022/08/05 10:09:12;;;;;;;2.00;0.63;;;24.20;99.90;;;;;;5056551;28;20251;-82
2022/08/05 10:11:39;;;;;;;4.38;0.95;;;24.40;99.90;;;;;;5040551;28;20163;-82
2022/08/05 10:14:28;;;;;;;1.33;0.68;;;24.50;99.90;;;;;;5055024;28;20180;-83
2022/08/05 10:16:55;;;;;;;2.33;0.95;;;24.50;99.90;;;;;;5020949;28;20242;-83
2022/08/05 10:19:22;;;;;;;2.13;0.95;;;24.70;99.90;;;;;;5014818;28;20214;-83
2022/08/05 10:21:49;;;;;;;2.38;0.60;;;24.30;99.90;;;;;;5015241;28;20172;-82
2022/08/05 10:24:19;;;;;;;2.85;0.70;;;23.80;99.90;;;;;;5015372;28;20246;-82
2022/08/05 10:26:47;;;;;;;2.08;0.77;;;24.10;99.90;;;;;;5035941;28;20171;-83
2022/08/05 10:29:13;;;;;;;1.15;0.57;;;24.30;99.90;;;;;;5034779;28;20221;-83
2022/08/05 10:31:38;;;;;;;3.88;0.90;;;24.10;99.90;;;;;;5036557;28;20163;-83
2022/08/05 10:34:08;;;;;;;1.15;0.60;;;24.30;99.90;;;;;;5051731;28;20172;-83
2022/08/05 10:36:36;;;;;;;0.80;0.68;;;24.80;99.90;;;;;;5036772;28;20211;-83
2022/08/05 10:39:07;;;;;;;1.30;0.90;;;25.00;99.90;;;;;;5036210;28;20168;-83
2022/08/05 10:41:48;;;;;;;1.70;0.80;;;24.90;99.90;;;;;;5035662;28;20168;-83
2022/08/05 10:44:19;;;;;;;1.90;0.90;;;24.60;99.90;;;;;;5018276;28;20237;-83
2022/08/05 10:46:49;;;;;;;1.75;0.80;;;24.40;99.90;;;;;;5018445;28;20163;-82
2022/08/05 10:49:15;;;;;;;4.75;1.00;;;24.40;99.90;;;;;;5018046;28;20266;-83
2022/08/05 10:51:46;;;;;;;5.40;1.10;;;24.50;99.90;;;;;;5036703;28;20160;-82
2022/08/05 10:54:14;;;;;;;5.95;0.85;;;24.60;99.90;;;;;;5035652;28;20178;-82
2022/08/05 10:56:50;;;;;;;4.22;1.13;;;24.90;99.90;;;;;;5018179;28;20254;-82
2022/08/05 10:59:25;;;;;;;0.70;0.68;;;24.70;99.90;;;;;;5035897;28;20324;-82
2022/08/05 11:02:12;;;;;;;1.25;1.05;;;24.60;99.90;;;;;;5023428;28;20171;-82
2022/08/05 11:04:53;;;;;;;1.65;0.90;;;24.70;99.90;;;;;;5019779;28;20281;-83
2022/08/05 11:07:20;;;;;;;1.95;1.00;;;25.00;99.90;;;;;;5022008;28;20628;-84
2022/08/05 11:09:53;;;;;;;2.72;1.13;;;24.90;99.90;;;;;;5017980;28;20282;-84
2022/08/05 11:12:37;;;;;;;1.40;0.60;;;25.10;99.90;;;;;;5018114;28;20168;-83
2022/08/05 11:15:16;;;;;;;0.82;0.52;;;25.00;99.90;;;;;;5017702;28;20177;-83
2022/08/05 11:17:43;;;;;;;1.33;0.70;;;24.80;99.90;;;;;;5017825;28;20671;-81
2022/08/05 11:20:39;;;;;;;3.47;0.80;;;24.50;99.90;;;;;;5017427;28;20685;-81
2022/08/05 11:23:29;;;;;;;3.50;0.98;;;24.80;99.90;;;;;;5035602;28;20175;-83
2022/08/05 11:26:09;;;;;;;1.27;0.75;;;25.10;99.90;;;;;;5017839;28;20176;-81
2022/08/05 11:28:37;;;;;;;9.13;1.20;;;25.20;99.90;;;;;;5018226;28;20207;-83
2022/08/05 11:31:04;;;;;;;3.00;0.88;;;25.20;99.90;;;;;;5017760;28;20196;-83
2022/08/05 11:33:32;;;;;;;5.35;1.00;;;24.90;99.90;;;;;;5017700;28;20172;-83
2022/08/05 11:36:08;;;;;;;0.80;0.80;;;24.70;99.90;;;;;;5035180;28;20176;-83
2022/08/05 11:38:40;;;;;;;1.33;0.65;;;24.60;99.90;;;;;;5017389;28;20628;-83
2022/08/05 11:41:17;;;;;;;1.20;0.75;;;24.30;99.90;;;;;;5017343;28;20215;-83
2022/08/05 11:43:51;;;;;;;2.00;1.10;;;24.50;99.90;;;;;;5036568;28;20174;-82
2022/08/05 11:46:47;;;;;;;15.52;0.85;;;24.50;99.90;;;;;;5021999;28;20520;-83
2022/08/05 11:49:15;;;;;;;0.90;0.70;;;24.50;99.90;;;;;;5009212;28;20228;-83
2022/08/05 11:51:46;;;;;;;2.70;0.68;;;24.60;99.90;;;;;;5016651;28;20171;-83
2022/08/05 11:54:13;;;;;;;3.03;0.80;;;24.40;99.90;;;;;;5016998;28;20202;-82
2022/08/05 11:56:50;;;;;;;3.53;0.45;;;24.30;99.90;;;;;;5016929;28;20172;-82
2022/08/05 11:59:19;;;;;;;1.17;0.57;;;24.30;99.90;;;;;;5034788;28;20200;-83
2022/08/05 12:01:55;;;;;;;4.32;0.80;;;23.80;99.90;;;;;;5016694;28;20164;-83
2022/08/05 12:04:21;;;;;;;2.97;0.80;;;24.00;99.90;;;;;;5016691;28;20546;-83
2022/08/05 12:06:47;;;;;;;6.90;0.88;;;24.20;99.90;;;;;;5034790;28;20160;-83
2022/08/05 12:09:19;;;;;;;0.73;0.60;;;24.30;99.90;;;;;;5049686;28;20223;-82
2022/08/05 12:11:46;;;;;;;7.68;0.88;;;24.30;99.90;;;;;;5034797;28;20160;-83
2022/08/05 12:14:12;;;;;;;4.13;0.57;;;24.00;99.90;;;;;;5016471;28;20229;-83
2022/08/05 12:16:43;;;;;;;1.38;0.80;;;24.10;99.90;;;;;;5016670;28;20171;-83
2022/08/05 12:19:10;;;;;;;4.97;0.70;;;24.10;99.90;;;;;;5016678;28;20675;-82
2022/08/05 12:21:42;;;;;;;8.05;0.90;;;23.90;99.90;;;;;;5017093;28;20168;-82
2022/08/05 12:24:10;;;;;;;1.77;0.90;;;23.80;99.90;;;;;;5034919;28;20251;-83
2022/08/05 12:26:51;;;;;;;12.60;1.13;;;23.80;99.90;;;;;;5020063;28;20202;-82
2022/08/05 12:29:24;;;;;;;1.92;0.60;;;23.80;99.90;;;;;;5047213;28;20242;-83
2022/08/05 12:31:54;;;;;;;2.25;0.60;;;23.90;99.90;;;;;;5033694;28;20255;-82
2022/08/05 12:34:32;;;;;;;1.17;0.70;;;24.00;99.90;;;;;;5033912;28;20251;-82
2022/08/05 12:37:00;;;;;;;0.47;0.47;;;24.30;99.90;;;;;;5015951;28;20178;-83
2022/08/05 12:39:27;;;;;;;1.13;0.63;;;24.30;99.90;;;;;;5015842;28;20214;-83
2022/08/05 12:41:58;;;;;;;1.02;0.70;;;24.20;99.90;;;;;;5015808;28;20237;-82
2022/08/05 12:44:24;;;;;;;1.38;0.52;;;24.20;99.90;;;;;;5015729;28;20218;-83
2022/08/05 12:46:54;;;;;;;1.17;0.50;;;24.10;99.90;;;;;;5033847;28;20175;-82
2022/08/05 12:49:20;;;;;;;1.75;0.65;;;24.20;99.90;;;;;;5032229;28;20296;-82
2022/08/05 12:51:50;;;;;;;0.63;0.40;;;24.50;99.90;;;;;;5015778;28;20199;-82
2022/08/05 12:54:31;;;;;;;3.63;0.60;;;24.60;99.90;;;;;;5015450;28;20191;-83
2022/08/05 12:57:01;;;;;;;1.05;0.60;;;24.60;99.90;;;;;;5015961;28;20226;-82
2022/08/05 12:59:33;;;;;;;1.42;0.30;;;24.60;99.90;;;;;;5015073;28;20199;-82
2022/08/05 13:02:06;;;;;;;2.10;0.60;;;24.50;99.90;;;;;;5015554;28;20221;-82
2022/08/05 13:04:34;;;;;;;5.32;0.40;;;24.20;99.90;;;;;;5033380;28;20246;-83